Lorton Lick, West Virginia
Current Conditions -  °F | °C
As of 7:52 AM on Thursday 23 Oct 2014 (Local Time) from KBLF Reporting Station
Overcast Overcast  
Wind Chill:   Ceiling: 1000
Heat Index:   Visibility: 10mi
Dew Point:   Wind: 5mph
Humidity: 82%   Direction: 290°WNW
Pressure: 30.15"   Gusts: NA
Location:  37.2994°N, 81.226°W
Report Text: KBLF 231152Z AUTO 29004KT 10SM BKN010 OVC017 06/03 A3015 RMK AO2 CIG 008V012 SLP211 70002 T00560028 10061 20056 50001
Loading
Personal Weather Stations






























Interactive Weather Map
Tropical Storm Tracking
New forecast layout! Learn more

10-Day Weather Forecast

Advertisements
Track Severe Weather on mobile